• Join FlightAware (Why Join?)
  • Login
  • US Flag 
03:45PM EDT


 

Airport Tracker/Info


-or-


 

Live Flight TrackerFlight Track Log ✈ TGW274 ✈ 29-Apr-2013 ✈ YSSY / SYD - YCFS

Flight Track Log - Related Links

Times and Time Zones

All times are in EDT time to prevent confusion due to time zone crossing. See the TGW274 flight status page for this flight to view local times or setup timezone preferences in your user account.

Time Position Orientation Groundspeed Altitude Reporting Facility
EDT Latitude Longitude Course Direction KTS MPH feet Rate Location/Type
11:41PM -33.9410 151.1780 168° South 20 23  Level FlightAware
11:41PM -33.9440 151.1790 165° South 19 22  Level FlightAware
11:42PM -33.9450 151.1790 180° South 13 15  Level FlightAware
11:42PM -33.9460 151.1790 180° South 10 12  Level FlightAware
11:42PM -33.9470 151.1790 180° South 14 16  Level FlightAware
11:43PM -33.9490 151.1800 157° South 18 21  Level FlightAware
11:43PM -33.9510 151.1800 180° South 11 13  Level FlightAware
11:44PM -33.9510 151.1810 90° East 14 16  Level FlightAware
11:44PM -33.9510 151.1830 90° East 18 21  Level FlightAware
11:44PM -33.9500 151.1850 59° Northeast 17 20  Level FlightAware
11:45PM -33.9500 151.1870 90° East 13 15 60 Level FlightAware
11:45PM -33.9530 151.1890 151° Southeast 70 81 60 Level FlightAware
11:46PM -33.9670 151.1930 167° South 148 170 100 1,380 Climbing FlightAware
11:46PM -33.9840 151.2040 152° Southeast 143 165 1,300 2,100 Climbing FlightAware
11:46PM -33.9890 151.2160 117° Southeast 158 182 1,700 1,260 Climbing FlightAware
11:47PM -34.0080 151.2490 125° Southeast 220 253 2,500 1,680 Climbing FlightAware
11:48PM -34.0360 151.2760 141° Southeast 268 308 3,700 2,280 Climbing FlightAware
11:48PM -34.0620 151.3000 143° Southeast 307 353 4,600 2,220 Climbing FlightAware
11:48PM -34.0790 151.3200 136° Southeast 326 375 5,200 2,760 Climbing FlightAware
11:48PM -34.0890 151.3450 116° Southeast 338 389 6,000 3,600 Climbing FlightAware
11:49PM -34.0910 151.3650 97° East 345 397 6,700 3,600 Climbing FlightAware
11:49PM -34.0830 151.4010 75° East 347 399 7,800 3,360 Climbing FlightAware
11:49PM -34.0720 151.4160 48° Northeast 347 399 8,400 3,600 Climbing FlightAware
11:49PM -34.0530 151.4320 35° Northeast 340 391 9,300 3,660 Climbing FlightAware
11:50PM -34.0083 151.4668 35° Northeast 359 413 11,000 2,820 Climbing Aus ATC (RADAR)
11:50PM -33.9960 151.4780 35° Northeast 374 430 11,200 2,580 Climbing FlightAware
11:51PM -33.9300 151.5290 33° Northeast 377 434 13,500 3,480 Climbing FlightAware
11:51PM -33.8738 151.5564 33° Northeast 378 435 15,500 3,120 Climbing Aus ATC (RADAR)
11:51PM -33.8640 151.5610 33° Northeast 386 444 15,600 2,460 Climbing FlightAware
11:52PM -33.7890 151.5980 22° Northeast 385 443 17,800 2,580 Climbing FlightAware
11:53PM -33.7210 151.6300 21° North 399 459 19,300 2,220 Climbing FlightAware
11:54PM -33.6390 151.6700 22° Northeast 419 482 21,000 2,100 Climbing FlightAware
11:54PM -33.5670 151.7020 20° North 418 481 22,300 2,340 Climbing FlightAware
11:55PM -33.5211 151.7164 20° North 418 481 23,300 1,920 Climbing Aus ATC (RADAR)
11:55PM -33.4900 151.7260 20° North 432 497 23,600 1,500 Climbing FlightAware
11:56PM -33.4010 151.7550 15° North 432 497 25,000 2,100 Climbing FlightAware
11:56PM -33.3348 151.7771 15° North 440 506 26,200 1,500 Climbing Aus ATC (RADAR)
11:57PM -33.2900 151.7910 15° North 455 524 26,400 840 Climbing FlightAware
11:57PM -33.2180 151.8140 15° North 467 537 27,100 2,040 Climbing FlightAware
11:58PM -33.1599 151.8336 15° North 460 529 28,400 1,920 Climbing Aus ATC (RADAR)
11:58PM -33.1160 151.8470 15° North 469 540 28,700 1,860 Climbing FlightAware
11:59PM -33.0310 151.8750 15° North 451 519 30,500 1,980 Climbing FlightAware
11:59PM -32.9457 151.9031 15° North 444 511 31,300 720 Climbing Aus ATC (RADAR)
11:59PM -32.9530 151.9000 15° North 447 514 31,000 -540 Descending FlightAware
12:00AM -32.8760 151.9240 15° North 452 520 31,000  Level FlightAware
12:01AM -32.7840 151.9540 15° North 450 518 31,000  Level FlightAware
12:02AM -32.6860 151.9850 15° North 452 520 31,000  Level FlightAware
12:02AM -32.6140 152.0080 15° North 452 520 31,000 180 Level FlightAware
12:03AM -32.5471 152.0289 15° North 450 518 31,200  Climbing Aus ATC (RADAR)
12:03AM -32.5260 152.0360 15° North 453 521 31,000 -240 Descending FlightAware
12:04AM -32.4450 152.0610 15° North 454 522 31,000 120 Level FlightAware
12:04AM -32.3644 152.0868 15° North 452 520 31,200  Climbing Aus ATC (RADAR)
12:04AM -32.3570 152.0890 15° North 456 525 31,000 -240 Descending FlightAware
12:05AM -32.2610 152.1190 15° North 457 526 31,000  Level FlightAware
12:06AM -32.1830 152.1440 15° North 456 525 31,000  Level FlightAware
12:06AM -32.1070 152.1680 15° North 455 524 31,000  Level FlightAware
12:07AM -31.9750 152.2090 15° North 455 524 31,000  Level FlightAware
12:08AM -31.9050 152.2310 15° North 456 525 31,000  Level FlightAware
12:09AM -31.8050 152.2620 15° North 459 528 31,000 180 Level FlightAware
12:09AM -31.7625 152.2757 15° North 456 525 31,200  Climbing Aus ATC (RADAR)
12:09AM -31.7280 152.2860 15° North 459 528 31,000 -420 Descending FlightAware
12:10AM -31.6360 152.3150 15° North 459 528 30,800 -900 Descending FlightAware
12:10AM -31.5820 152.3314 15° North 456 525 30,100 -2,400 Descending Aus ATC (RADAR)
12:11AM -31.5570 152.3400 15° North 457 526 29,200 -2,820 Descending FlightAware
12:12AM -31.4690 152.3670 15° North 459 528 27,200 -2,940 Descending FlightAware
12:12AM -31.3874 152.3924 15° North 462 532 25,500 -3,180 Descending Aus ATC (RADAR)
12:12AM -31.3810 152.3940 15° North 462 532 25,100 -3,000 Descending FlightAware
12:13AM -31.3000 152.4190 15° North 461 531 23,100 -2,160 Descending FlightAware
12:14AM -31.1970 152.4500 15° North 455 524 21,700 -3,060 Descending FlightAware
12:14AM -31.1723 152.4582 15° North 452 520 20,200 -3,300 Descending Aus ATC (RADAR)
12:16AM -31.0523 152.5610 33° Northeast  Level Estimated
12:16AM -30.9273 152.5328 33° Northeast 405 466 14,500  Level Aus ATC (RADAR)
12:18AM -30.7636 152.6077 21° North 380 437 10,700 -1,860 Descending Aus ATC (RADAR)
12:20AM -30.6307 152.7659 46° Northeast 283 326 7,500 -1,620 Descending Aus ATC (RADAR)
12:21AM -30.5730 152.8351 46° Northeast 267 307 5,500 -1,860 Descending Aus ATC (RADAR)
12:25AM -30.3775 153.0468 47° Northeast 200 -1,500 Descending Aus ATC (Calculated)
12:27AM -30.3206 153.1164 43° Northeast  Level Estimated
12:28AM -30.3206 153.1164 North  Level Estimated
12:29AM -30.3206 153.1164 185° South  Level Estimated
12:30AM -30.3206 153.1164 185° South  Level Estimated